Main page
METAR-TAF:

METAR-TAF

Airports :

RAF Valley

Valley, Wales

latitude: 53-15N, longitude: 004-32W, elevation: 1 m

Current weather observation

The report was made 47 minutes ago, at 21:50 UTC
Wind 15 kt from the West
Temperature 12°C
Humidity 71%
Pressure 1015 hPa
Visibility 10 km or more

METAR: EGOV 212150Z AUTO 28015KT 9999 BKN045/// 12/07 Q1015

Time: 23:37 (22:37 UTC)

Forecast

The report was made 9 hours and 4 minutes ago, at 13:33 UTC
Forecast valid from 21 at 15 UTC to 21 at 18 UTC
Wind 23 kt from the West with gusts up to 33 kt
Visibility 10 km or more
Few clouds at a height of 2800 ft
Probability 30% :
Temporary
from 21 at 15 UTC to 21 at 18 UTC
Visibility: 7000 m
rain showers
Becoming
from 21 at 16 UTC to 21 at 18 UTC
Wind 18 kt from the West

TAF: EGOV 211333Z 2115/2118 27023G33KT 9999 FEW028 PROB30 TEMPO 2115/2118 7000 SHRA BECMG 2116/2118 27018KT

Weather observations and forecasts of more than 4000 airports (METAR and TAF reports).

The available stations are represented by yellow and red dots on the map.

Hover mouse over dot to see the name of the station.

Then click to see weather observations and forecasts.

To change the map : click on the green buttons with a black cross to zoom in, on the green button with a dash to zoom out, or on the green arrows for adjacent maps.


METAR-TAF: